Time;durP1;ratioP1;P1;durP2;ratioP2;P2;SDS_P1;SDS_P2;PMS_P1;PMS_P2;Temp;Humidity;BMP_temperature;BMP_pressure;BME280_temperature;BME280_humidity;BME280_pressure;Samples;Min_cycle;Max_cycle;Signal;HPM_P1;HPM_P2
2024/02/16 00:01:57;;;;;;;9.85;4.93;;;;;;;8.34;52.33;100262.50;5034458;28;20393;-26
2024/02/16 00:04:22;;;;;;;8.13;4.38;;;;;;;8.06;52.62;100261.34;5033749;28;20029;-37
2024/02/16 00:06:48;;;;;;;6.65;4.40;;;;;;;8.23;52.28;100269.03;5033947;28;20026;-39
2024/02/16 00:09:14;;;;;;;6.03;4.22;;;;;;;8.06;52.73;100258.72;5033948;28;20081;-26
2024/02/16 00:11:39;;;;;;;6.55;4.15;;;;;;;7.61;54.17;100271.66;5033879;28;20044;-26
2024/02/16 00:14:05;;;;;;;8.20;4.47;;;;;;;7.68;53.64;100271.81;5033898;28;20047;-26
2024/02/16 00:16:30;;;;;;;6.00;4.43;;;;;;;7.88;53.31;100272.19;5034050;28;20052;-26
2024/02/16 00:18:56;;;;;;;7.20;4.07;;;;;;;7.77;53.60;100266.28;5033640;28;20445;-26
2024/02/16 00:21:21;;;;;;;6.90;4.10;;;;;;;7.78;53.51;100257.31;5033894;28;20025;-26
2024/02/16 00:23:46;;;;;;;9.25;4.40;;;;;;;8.00;53.08;100261.03;5033520;28;20033;-26
2024/02/16 00:26:12;;;;;;;8.48;4.13;;;;;;;7.75;53.72;100267.44;5033083;28;20029;-26
2024/02/16 00:28:37;;;;;;;7.03;4.55;;;;;;;7.77;53.57;100268.13;5033465;28;20082;-26
2024/02/16 00:31:03;;;;;;;7.32;4.15;;;;;;;7.72;53.33;100265.97;5033525;28;20036;-26
2024/02/16 00:33:29;;;;;;;8.93;3.97;;;;;;;7.71;53.70;100264.34;5033411;28;20033;-26
2024/02/16 00:35:54;;;;;;;5.97;4.20;;;;;;;7.69;53.49;100257.53;5033344;28;20021;-26
2024/02/16 00:38:19;;;;;;;6.40;4.20;;;;;;;7.74;53.59;100258.69;5033461;28;20036;-26
2024/02/16 00:40:45;;;;;;;5.68;4.20;;;;;;;7.93;52.97;100257.44;5033427;28;20044;-26
2024/02/16 00:43:10;;;;;;;5.95;4.20;;;;;;;7.86;52.98;100260.94;5033634;28;20528;-26
2024/02/16 00:45:36;;;;;;;7.93;3.97;;;;;;;7.87;53.29;100263.44;5033659;28;20110;-26
2024/02/16 00:48:03;;;;;;;6.32;4.30;;;;;;;7.86;52.89;100247.69;5033521;28;20113;-26
2024/02/16 00:50:28;;;;;;;6.55;4.20;;;;;;;8.03;52.61;100254.56;5033681;28;20030;-27
2024/02/16 00:52:54;;;;;;;8.05;4.82;;;;;;;7.83;53.05;100252.34;5033566;28;20107;-26
2024/02/16 00:55:20;;;;;;;6.80;4.50;;;;;;;8.05;52.44;100260.50;5033539;28;20104;-26
2024/02/16 00:57:45;;;;;;;7.50;4.68;;;;;;;8.16;51.80;100259.28;5033555;28;20477;-26
2024/02/16 01:00:11;;;;;;;8.00;5.10;;;;;;;7.86;52.63;100245.88;5032892;28;20132;-26
2024/02/16 01:02:36;;;;;;;7.00;4.28;;;;;;;7.78;52.61;100254.69;5033279;28;20037;-26
2024/02/16 01:05:02;;;;;;;8.18;4.25;;;;;;;7.27;53.97;100248.09;5033243;28;20132;-26
2024/02/16 01:07:28;;;;;;;7.28;4.20;;;;;;;7.77;53.54;100250.41;5033081;28;20026;-26
2024/02/16 01:09:54;;;;;;;6.47;4.25;;;;;;;8.03;51.97;100249.25;5033241;28;20401;-26
2024/02/16 01:12:20;;;;;;;6.85;4.30;;;;;;;7.97;52.49;100253.44;5033618;28;20151;-26
2024/02/16 01:14:45;;;;;;;6.70;4.38;;;;;;;8.01;51.86;100254.75;5033320;28;20236;-27
2024/02/16 01:17:10;;;;;;;7.88;4.60;;;;;;;7.98;52.53;100257.75;5033141;28;20025;-26
2024/02/16 01:19:36;;;;;;;6.80;4.57;;;;;;;8.31;51.55;100257.53;5033252;28;20470;-26
2024/02/16 01:22:01;;;;;;;6.88;4.07;;;;;;;8.12;51.93;100255.34;5033022;28;20467;-26
2024/02/16 01:24:26;;;;;;;6.38;4.22;;;;;;;8.26;51.99;100251.94;5033108;28;20036;-27
2024/02/16 01:26:52;;;;;;;6.22;4.18;;;;;;;8.01;52.54;100256.56;5032655;28;20504;-25
2024/02/16 01:29:17;;;;;;;6.63;4.03;;;;;;;7.86;52.29;100255.66;5032792;28;20025;-26
2024/02/16 01:31:43;;;;;;;6.72;4.10;;;;;;;7.88;52.29;100253.66;5032963;28;20381;-26
2024/02/16 01:34:08;;;;;;;5.53;3.95;;;;;;;7.85;52.94;100264.63;5032583;28;20109;-26
2024/02/16 01:36:33;;;;;;;7.85;4.03;;;;;;;7.76;52.84;100254.03;5032131;28;20028;-26
2024/02/16 01:38:59;;;;;;;6.10;4.00;;;;;;;7.78;52.91;100244.09;5033106;28;20091;-26
2024/02/16 01:41:24;;;;;;;6.88;3.97;;;;;;;7.75;52.64;100244.44;5032856;28;20025;-26
2024/02/16 01:43:53;;;;;;;4.57;3.85;;;;;;;8.16;51.77;100252.16;5032440;28;20139;-26
2024/02/16 01:46:18;;;;;;;7.90;4.28;;;;;;;8.28;51.67;100257.91;5032642;28;20452;-26
2024/02/16 01:48:44;;;;;;;7.78;4.25;;;;;;;8.11;51.74;100256.34;5032781;28;20465;-26
2024/02/16 01:51:10;;;;;;;7.38;4.43;;;;;;;7.78;52.62;100251.22;5032400;28;20033;-26
2024/02/16 01:53:36;;;;;;;6.20;3.90;;;;;;;7.97;52.30;100258.72;5032194;28;20095;-26
2024/02/16 01:56:02;;;;;;;5.50;3.88;;;;;;;8.32;51.27;100255.72;5032420;28;20052;-26
2024/02/16 01:58:28;;;;;;;7.05;4.38;;;;;;;8.03;52.17;100252.75;5032656;28;20338;-26
2024/02/16 02:00:54;;;;;;;6.45;4.03;;;;;;;7.76;52.42;100253.22;5032566;28;20484;-26
2024/02/16 02:03:20;;;;;;;5.55;3.83;;;;;;;7.65;53.29;100251.75;5032657;28;20037;-26
2024/02/16 02:05:46;;;;;;;6.97;4.20;;;;;;;7.51;53.09;100244.53;5032231;28;20025;-25
2024/02/16 02:08:12;;;;;;;6.90;4.30;;;;;;;7.74;52.49;100256.03;5032036;28;20034;-26
2024/02/16 02:10:37;;;;;;;7.43;4.05;;;;;;;7.85;52.42;100256.66;5032198;28;20026;-26
2024/02/16 02:13:03;;;;;;;6.13;4.13;;;;;;;7.74;53.09;100248.09;5031920;28;20110;-26
2024/02/16 02:15:28;;;;;;;8.25;4.18;;;;;;;7.76;52.93;100247.91;5031793;28;20330;-26
2024/02/16 02:17:54;;;;;;;7.60;3.85;;;;;;;7.74;52.60;100255.22;5031725;28;20120;-26
2024/02/16 02:20:19;;;;;;;6.85;4.03;;;;;;;7.78;52.41;100252.03;5031704;28;20082;-26
2024/02/16 02:22:44;;;;;;;7.05;4.00;;;;;;;7.93;52.33;100248.66;5031844;28;20108;-26
2024/02/16 02:25:10;;;;;;;8.27;4.22;;;;;;;7.88;52.08;100227.16;5031676;28;20120;-27
2024/02/16 02:27:37;;;;;;;8.00;4.40;;;;;;;7.74;52.68;100242.78;5032113;28;20061;-26
2024/02/16 02:30:05;;;;;;;7.07;4.10;;;;;;;7.98;51.82;100247.13;5031544;28;20112;-26
2024/02/16 02:32:30;;;;;;;6.25;3.90;;;;;;;7.77;52.19;100241.63;5031915;28;20128;-26
2024/02/16 02:34:56;;;;;;;6.90;4.03;;;;;;;7.78;52.01;100230.84;5031496;28;20055;-26
2024/02/16 02:37:21;;;;;;;6.53;4.07;;;;;;;8.10;51.62;100234.31;5031654;28;20036;-26
2024/02/16 02:39:47;;;;;;;6.10;3.92;;;;;;;7.94;51.87;100237.91;5031278;28;20091;-26
2024/02/16 02:42:13;;;;;;;6.85;3.92;;;;;;;7.80;51.91;100228.84;5031391;28;20064;-26
2024/02/16 02:44:38;;;;;;;6.55;4.05;;;;;;;8.01;51.29;100240.66;5031794;28;20033;-27
2024/02/16 02:47:03;;;;;;;5.70;3.80;;;;;;;8.14;51.10;100232.94;5030520;28;20494;-27
2024/02/16 02:49:29;;;;;;;6.80;3.85;;;;;;;8.10;51.06;100230.84;5036778;28;20029;-27
2024/02/16 02:51:54;;;;;;;7.15;4.20;;;;;;;8.12;51.25;100237.59;5031099;28;20040;-27
2024/02/16 02:54:19;;;;;;;6.82;4.40;;;;;;;7.81;51.83;100234.97;5041721;28;20124;-27
2024/02/16 02:56:45;;;;;;;5.55;3.65;;;;;;;7.96;51.69;100230.59;5039452;28;20024;-27
2024/02/16 02:59:10;;;;;;;7.13;4.20;;;;;;;7.81;51.94;100235.81;5037464;28;20386;-26
2024/02/16 03:01:36;;;;;;;6.63;4.07;;;;;;;8.01;51.38;100230.91;5042720;28;20098;-27
2024/02/16 03:04:02;;;;;;;8.80;4.22;;;;;;;8.08;51.20;100235.50;5040151;28;20238;-27
2024/02/16 03:06:27;;;;;;;6.95;3.88;;;;;;;7.93;51.50;100236.22;5035227;28;20120;-27
2024/02/16 03:08:53;;;;;;;7.35;3.97;;;;;;;7.53;52.12;100232.78;5041990;28;20452;-26
2024/02/16 03:11:18;;;;;;;7.40;4.28;;;;;;;7.16;53.42;100230.72;5047481;28;20024;-27
2024/02/16 03:13:44;;;;;;;6.80;4.18;;;;;;;7.29;53.59;100248.75;5051424;28;20031;-27
2024/02/16 03:16:09;;;;;;;6.43;4.07;;;;;;;7.35;53.63;100251.56;5051191;28;20091;-27
2024/02/16 03:18:34;;;;;;;6.95;4.22;;;;;;;7.22;53.83;100245.97;5051067;28;20041;-27
2024/02/16 03:21:00;;;;;;;7.68;4.55;;;;;;;7.09;54.17;100237.72;5051367;28;20056;-27
2024/02/16 03:23:25;;;;;;;9.07;4.28;;;;;;;7.34;53.25;100233.19;5051173;28;20033;-26
2024/02/16 03:25:51;;;;;;;6.75;4.05;;;;;;;7.00;54.06;100239.53;5050994;28;20457;-27
2024/02/16 03:28:16;;;;;;;5.55;3.97;;;;;;;7.09;53.24;100235.06;5051062;28;20057;-26
2024/02/16 03:30:43;;;;;;;7.05;4.07;;;;;;;7.13;53.70;100245.13;5051059;28;20029;-27
2024/02/16 03:33:09;;;;;;;6.90;3.95;;;;;;;7.47;52.42;100251.19;5051067;28;20029;-27
2024/02/16 03:35:36;;;;;;;8.15;4.20;;;;;;;7.11;53.00;100246.31;5041218;28;20034;-27
2024/02/16 03:38:01;;;;;;;6.88;3.90;;;;;;;7.13;52.93;100246.97;5031475;28;20155;-27
2024/02/16 03:40:28;;;;;;;8.98;4.50;;;;;;;7.25;52.99;100250.91;5031080;28;20064;-28
2024/02/16 03:42:54;;;;;;;6.03;4.13;;;;;;;7.35;52.13;100245.41;5031019;28;20029;-27
2024/02/16 03:45:19;;;;;;;8.00;4.70;;;;;;;7.75;51.44;100268.28;5030937;28;20030;-27
2024/02/16 03:47:44;;;;;;;7.15;4.13;;;;;;;7.76;51.45;100261.97;5031040;28;20064;-40
2024/02/16 03:50:10;;;;;;;7.38;4.50;;;;;;;7.53;52.28;100255.78;5031034;28;20033;-40
2024/02/16 03:52:37;;;;;;;8.77;4.25;;;;;;;7.63;52.08;100265.19;5031114;28;20053;-39
2024/02/16 03:55:02;;;;;;;6.68;4.15;;;;;;;7.77;51.64;100262.81;5031008;28;20104;-27
2024/02/16 03:57:31;;;;;;;7.63;4.10;;;;;;;7.86;51.77;100268.91;5030672;28;20533;-27
2024/02/16 03:59:56;;;;;;;6.35;4.07;;;;;;;7.83;51.71;100270.91;5034103;28;20025;-26
2024/02/16 04:02:21;;;;;;;6.97;4.32;;;;;;;7.93;52.46;100262.72;5035119;28;20087;-40
2024/02/16 04:04:47;;;;;;;6.40;3.80;;;;;;;7.87;52.20;100265.25;5035219;28;20025;-27
2024/02/16 04:07:12;;;;;;;5.75;3.65;;;;;;;7.76;52.03;100261.97;5034923;28;20022;-27
2024/02/16 04:09:37;;;;;;;6.97;3.80;;;;;;;7.52;52.88;100270.88;5034752;28;20508;-27
2024/02/16 04:12:03;;;;;;;8.48;4.00;;;;;;;7.63;52.69;100267.00;5034862;28;20440;-26
2024/02/16 04:14:30;;;;;;;9.68;4.28;;;;;;;7.38;53.09;100264.44;5039383;28;20059;-40
2024/02/16 04:16:57;;;;;;;6.30;4.35;;;;;;;7.66;52.54;100265.84;5033448;28;20087;-38
2024/02/16 04:19:24;;;;;;;6.95;4.05;;;;;;;7.30;53.42;100263.66;5047559;28;20056;-40
2024/02/16 04:21:49;;;;;;;8.65;4.25;;;;;;;7.15;53.99;100266.97;5044451;28;20067;-39
2024/02/16 04:24:14;;;;;;;6.85;4.13;;;;;;;6.99;54.65;100269.66;5041830;28;20053;-39
2024/02/16 04:26:40;;;;;;;8.73;4.18;;;;;;;7.19;54.43;100275.41;5042740;28;20086;-39
2024/02/16 04:29:05;;;;;;;6.35;4.07;;;;;;;7.53;53.40;100279.63;5052356;28;20029;-40
2024/02/16 04:31:31;;;;;;;7.00;4.35;;;;;;;7.64;53.02;100281.91;5053637;28;20040;-39
2024/02/16 04:33:56;;;;;;;6.72;4.32;;;;;;;7.63;52.90;100288.19;5053441;28;20024;-39
2024/02/16 04:36:21;;;;;;;9.00;4.60;;;;;;;7.49;53.35;100284.44;5037561;28;20029;-39
2024/02/16 04:38:47;;;;;;;9.18;4.53;;;;;;;7.46;53.50;100294.53;5032154;28;20509;-40
2024/02/16 04:41:12;;;;;;;7.80;4.60;;;;;;;7.50;53.53;100283.44;5033606;28;20108;-39
2024/02/16 04:43:39;;;;;;;7.30;4.82;;;;;;;7.62;53.21;100290.03;5033584;28;20108;-39
2024/02/16 04:46:04;;;;;;;7.20;4.30;;;;;;;7.49;53.48;100288.91;5033542;28;20427;-39
2024/02/16 04:48:31;;;;;;;7.22;4.55;;;;;;;7.05;54.61;100290.97;5033191;28;20044;-39
2024/02/16 04:50:56;;;;;;;7.53;4.32;;;;;;;6.95;55.05;100286.84;5033527;28;20029;-39
2024/02/16 04:53:21;;;;;;;6.25;4.15;;;;;;;6.81;55.77;100285.69;5033492;28;20044;-39
2024/02/16 04:55:47;;;;;;;6.90;4.50;;;;;;;6.97;55.05;100290.16;5033749;28;20029;-39
2024/02/16 04:58:12;;;;;;;8.70;4.50;;;;;;;6.81;55.61;100283.03;5033256;28;20041;-38
2024/02/16 05:00:38;;;;;;;14.05;6.55;;;;;;;7.52;77.10;100291.22;5033363;28;20040;-39
2024/02/16 05:03:04;;;;;;;8.45;4.68;;;;;;;7.51;55.31;100295.69;5033417;28;20029;-40
2024/02/16 05:05:30;;;;;;;7.50;4.57;;;;;;;7.01;55.94;100292.31;5032977;28;20029;-39
2024/02/16 05:07:56;;;;;;;7.38;4.60;;;;;;;7.09;57.14;100296.75;5033070;28;20484;-38
2024/02/16 05:10:21;;;;;;;9.25;4.82;;;;;;;6.90;58.18;100300.56;5045367;28;20119;-40
2024/02/16 05:12:47;;;;;;;7.93;4.65;;;;;;;6.89;55.40;100290.97;5053828;28;20025;-41
2024/02/16 05:15:16;;;;;;;7.63;4.28;;;;;;;6.83;56.43;100304.88;5053330;28;20512;-40
2024/02/16 05:17:42;;;;;;;;;;;;;;;6.81;56.22;100305.03;5052884;28;20044;-27
2024/02/16 05:20:15;;;;;;;8.60;4.35;;;;;;;6.64;56.57;100311.31;5052340;28;20254;-26
2024/02/16 05:22:45;;;;;;;8.82;4.60;;;;;;;6.78;56.08;100293.97;5052938;28;20029;-27
2024/02/16 05:25:11;;;;;;;6.63;4.55;;;;;;;6.65;56.33;100313.78;5052702;28;20047;-27
2024/02/16 05:27:37;;;;;;;9.10;4.63;;;;;;;6.82;55.92;100305.88;5053169;28;20029;-26
2024/02/16 05:30:04;;;;;;;7.25;4.10;;;;;;;6.67;56.47;100310.16;5053079;28;20032;-26
2024/02/16 05:32:29;;;;;;;6.55;4.22;;;;;;;6.92;55.39;100311.00;5052327;28;20111;-27
2024/02/16 05:34:55;;;;;;;10.18;4.50;;;;;;;6.94;55.48;100315.13;5048387;28;20101;-27
2024/02/16 05:37:22;;;;;;;6.13;4.28;;;;;;;6.74;55.68;100319.94;5032819;28;20476;-26
2024/02/16 05:40:08;;;;;;;7.80;4.20;;;;;;;6.78;55.85;100315.13;5032462;28;20049;-27
2024/02/16 05:42:34;;;;;;;8.35;4.82;;;;;;;6.80;55.26;100318.44;5032438;28;20075;-26
2024/02/16 05:45:00;;;;;;;6.80;4.35;;;;;;;6.92;55.75;100319.75;5032501;28;20044;-27
2024/02/16 05:47:25;;;;;;;7.70;4.55;;;;;;;6.78;56.16;100329.19;5031958;28;20485;-26
2024/02/16 05:49:51;;;;;;;7.88;4.55;;;;;;;6.72;56.56;100329.00;5031728;28;20110;-27
2024/02/16 05:52:20;;;;;;;12.90;4.30;;;;;;;6.65;55.88;100316.44;5032224;28;20029;-26
2024/02/16 05:54:47;;;;;;;8.77;5.00;;;;;;;6.81;56.19;100325.38;5032142;28;20037;-28
2024/02/16 05:57:12;;;;;;;14.20;6.10;;;;;;;6.85;56.08;100334.63;5032028;28;20013;-26
2024/02/16 05:59:38;;;;;;;11.48;5.40;;;;;;;6.72;57.47;100329.00;5032076;28;20025;-28
2024/02/16 06:02:05;;;;;;;9.75;5.40;;;;;;;7.00;55.95;100330.34;5032339;28;20029;-27
2024/02/16 06:04:31;;;;;;;10.60;6.20;;;;;;;7.21;55.57;100327.19;5032249;28;20033;-27
2024/02/16 06:06:56;;;;;;;8.77;5.40;;;;;;;6.87;55.96;100321.25;5031702;28;20040;-27
2024/02/16 06:09:21;;;;;;;10.02;5.70;;;;;;;7.05;55.65;100332.50;5031951;28;20489;-28
2024/02/16 06:11:48;;;;;;;6.47;4.18;;;;;;;6.91;56.16;100328.69;5032022;28;20092;-27
2024/02/16 06:14:14;;;;;;;7.95;5.35;;;;;;;7.03;55.08;100337.94;5031750;28;20104;-27
2024/02/16 06:16:42;;;;;;;8.75;5.00;;;;;;;7.20;54.80;100333.47;5032034;28;20096;-27
2024/02/16 06:19:08;;;;;;;7.38;4.40;;;;;;;7.22;54.71;100334.13;5031458;28;20045;-28
2024/02/16 06:21:34;;;;;;;8.02;4.20;;;;;;;7.43;54.29;100343.38;5031791;28;20083;-26
2024/02/16 06:23:59;;;;;;;8.10;4.40;;;;;;;7.27;54.55;100349.50;5031834;28;20021;-27
2024/02/16 06:26:24;;;;;;;6.97;4.40;;;;;;;7.64;53.94;100345.50;5031741;28;20022;-27
2024/02/16 06:28:50;;;;;;;7.88;4.30;;;;;;;7.91;52.85;100346.88;5031638;28;20026;-27
2024/02/16 06:31:15;;;;;;;6.40;4.18;;;;;;;7.93;53.21;100344.88;5031529;28;20047;-27
2024/02/16 06:33:41;;;;;;;7.22;4.03;;;;;;;7.86;53.34;100348.41;5031926;28;20029;-40
2024/02/16 06:36:07;;;;;;;6.40;4.45;;;;;;;7.92;52.90;100350.34;5031635;28;20018;-41
2024/02/16 06:38:32;;;;;;;7.60;3.92;;;;;;;8.20;52.71;100354.22;5031465;28;20096;-40
2024/02/16 06:40:57;;;;;;;8.35;4.88;;;;;;;8.50;51.71;100350.97;5031264;28;20033;-41
2024/02/16 06:43:23;;;;;;;7.53;4.38;;;;;;;8.76;50.70;100353.28;5031576;28;20448;-42
2024/02/16 06:45:48;;;;;;;9.30;4.70;;;;;;;8.78;50.53;100361.88;5031479;28;20045;-41
2024/02/16 06:48:13;;;;;;;10.52;5.32;;;;;;;9.11;49.81;100357.16;5031426;28;20475;-40
2024/02/16 06:50:39;;;;;;;18.17;6.70;;;;;;;9.26;49.17;100362.50;5031248;28;20397;-39
2024/02/16 06:53:04;;;;;;;10.10;5.53;;;;;;;9.20;49.10;100357.91;5031239;28;20048;-41
2024/02/16 06:55:29;;;;;;;9.85;5.40;;;;;;;9.11;49.23;100354.50;5031057;28;20478;-28
2024/02/16 06:57:55;;;;;;;10.43;5.30;;;;;;;9.52;48.53;100358.59;5031578;28;20460;-40
2024/02/16 07:00:21;;;;;;;8.90;4.95;;;;;;;9.91;48.27;100349.53;5031292;28;20045;-41
2024/02/16 07:02:47;;;;;;;9.55;5.00;;;;;;;9.75;47.43;100359.34;5031411;28;20022;-41
2024/02/16 07:05:12;;;;;;;10.50;4.95;;;;;;;9.61;47.92;100352.19;5031297;28;20026;-41
2024/02/16 07:07:38;;;;;;;8.60;4.45;;;;;;;9.29;49.24;100364.81;5030847;28;20037;-40
2024/02/16 07:10:05;;;;;;;7.25;4.57;;;;;;;9.48;48.51;100360.81;5031192;28;20078;-39
2024/02/16 07:12:30;;;;;;;9.68;5.00;;;;;;;9.71;48.60;100358.09;5029767;28;20026;-41
2024/02/16 07:14:56;;;;;;;9.80;4.80;;;;;;;10.24;47.21;100357.13;5031034;28;20022;-41
2024/02/16 07:17:21;;;;;;;10.07;4.95;;;;;;;10.46;47.05;100358.03;5030860;28;20160;-41
2024/02/16 07:19:46;;;;;;;10.07;5.35;;;;;;;10.44;46.73;100360.88;5030837;28;20113;-41
2024/02/16 07:22:12;;;;;;;10.55;6.05;;;;;;;10.53;46.32;100362.41;5031093;28;20495;-39
2024/02/16 07:24:37;;;;;;;10.48;5.78;;;;;;;10.57;46.96;100365.53;5031099;28;20056;-39
2024/02/16 07:27:03;;;;;;;9.43;5.53;;;;;;;10.74;46.12;100368.78;5031151;28;20405;-40
2024/02/16 07:29:29;;;;;;;9.05;5.05;;;;;;;10.89;45.11;100372.19;5031487;28;20496;-38
2024/02/16 07:31:55;;;;;;;9.80;5.25;;;;;;;10.95;44.99;100373.28;5030892;28;20079;-40
2024/02/16 07:34:21;;;;;;;9.30;5.00;;;;;;;11.33;44.79;100373.81;5033824;28;20119;-40
2024/02/16 07:36:46;;;;;;;9.25;5.00;;;;;;;11.49;43.85;100372.69;5034807;28;20465;-40
2024/02/16 07:39:12;;;;;;;7.45;4.82;;;;;;;11.50;43.70;100376.19;5034862;28;20022;-39
2024/02/16 07:41:38;;;;;;;9.25;4.50;;;;;;;11.89;43.36;100378.31;5034743;28;20021;-40
2024/02/16 07:44:04;;;;;;;7.53;4.50;;;;;;;12.46;42.12;100368.31;5034954;28;20370;-37
2024/02/16 07:46:29;;;;;;;7.07;4.70;;;;;;;12.49;41.71;100364.44;5034746;28;20024;-40
2024/02/16 07:48:54;;;;;;;7.13;4.50;;;;;;;12.89;41.17;100377.88;5034662;28;20036;-42
2024/02/16 07:51:20;;;;;;;6.82;4.07;;;;;;;13.00;40.23;100371.09;5034518;28;20060;-41
2024/02/16 07:53:46;;;;;;;7.07;4.30;;;;;;;12.83;40.94;100376.00;5034580;28;20107;-37
2024/02/16 07:56:12;;;;;;;12.70;4.10;;;;;;;13.03;40.46;100374.19;5034633;28;20090;-39
2024/02/16 07:58:37;;;;;;;6.63;4.40;;;;;;;13.01;40.36;100378.09;5034246;28;20531;-37
2024/02/16 08:01:02;;;;;;;5.63;4.10;;;;;;;13.20;39.94;100371.94;5034520;28;20017;-41
2024/02/16 08:03:28;;;;;;;7.88;4.00;;;;;;;13.15;40.12;100369.03;5034342;28;20044;-41
2024/02/16 08:05:55;;;;;;;5.32;4.07;;;;;;;13.16;39.84;100365.34;5034793;28;20119;-39
2024/02/16 08:08:22;;;;;;;6.28;4.10;;;;;;;13.60;38.24;100360.44;5034334;28;20494;-43
2024/02/16 08:10:48;;;;;;;8.05;4.00;;;;;;;14.09;38.95;100359.06;5034386;28;20022;-38
2024/02/16 08:13:13;;;;;;;4.75;4.00;;;;;;;14.36;37.86;100369.66;5034653;28;20026;-40
2024/02/16 08:15:39;;;;;;;7.18;4.13;;;;;;;14.66;36.60;100369.97;5034144;28;20025;-41
2024/02/16 08:18:05;;;;;;;7.65;4.00;;;;;;;14.89;36.43;100371.25;5034037;28;20033;-40
2024/02/16 08:20:31;;;;;;;5.40;3.80;;;;;;;14.67;36.43;100371.59;5034035;28;20025;-43
2024/02/16 08:22:56;;;;;;;6.35;4.10;;;;;;;14.62;36.09;100374.91;5033956;28;20040;-41
2024/02/16 08:25:22;;;;;;;6.30;4.75;;;;;;;14.76;36.19;100367.63;5033642;28;20017;-41
2024/02/16 08:27:49;;;;;;;6.93;4.88;;;;;;;14.61;36.07;100375.13;5034109;28;20103;-41
2024/02/16 08:30:15;;;;;;;7.15;3.60;;;;;;;14.12;37.14;100371.19;5033554;28;20436;-37
2024/02/16 08:32:40;;;;;;;5.05;3.70;;;;;;;13.36;37.91;100375.25;5032385;28;20083;-41
2024/02/16 08:35:06;;;;;;;6.18;4.05;;;;;;;13.64;37.90;100367.81;5033623;28;20032;-40
2024/02/16 08:37:31;;;;;;;8.05;4.10;;;;;;;13.97;37.16;100368.78;5033726;28;20029;-38
2024/02/16 08:39:57;;;;;;;7.70;5.00;;;;;;;14.24;37.17;100378.38;5033207;28;20549;-40
2024/02/16 08:42:23;;;;;;;6.00;3.90;;;;;;;13.79;37.83;100377.47;5033460;28;20462;-39
2024/02/16 08:44:51;;;;;;;5.20;3.80;;;;;;;14.07;36.96;100375.34;5032410;28;20083;-37
2024/02/16 08:47:17;;;;;;;5.18;3.78;;;;;;;14.17;37.12;100376.75;5033643;28;20028;-39
2024/02/16 08:49:42;;;;;;;6.18;4.07;;;;;;;13.83;37.48;100384.84;5033567;28;20017;-36
2024/02/16 08:52:08;;;;;;;6.95;4.25;;;;;;;13.82;37.74;100380.56;5033539;28;20127;-41
2024/02/16 08:54:33;;;;;;;6.82;4.50;;;;;;;13.63;38.21;100376.88;5033285;28;20022;-37
2024/02/16 08:56:59;;;;;;;8.40;4.50;;;;;;;13.17;39.27;100382.22;5033371;28;20018;-39
2024/02/16 08:59:25;;;;;;;6.22;4.47;;;;;;;13.13;39.54;100378.31;5033022;28;20171;-40
2024/02/16 09:01:50;;;;;;;7.68;4.32;;;;;;;13.58;39.03;100383.88;5033465;28;20018;-40
2024/02/16 09:04:15;;;;;;;10.15;4.93;;;;;;;13.73;38.68;100380.97;5033232;28;20446;-41
2024/02/16 09:06:41;;;;;;;7.47;4.50;;;;;;;13.67;39.30;100377.28;5033041;28;20481;-40
2024/02/16 09:09:07;;;;;;;6.60;4.45;;;;;;;13.37;39.94;100377.72;5033273;28;20512;-39
2024/02/16 09:11:33;;;;;;;7.78;4.40;;;;;;;12.69;40.59;100372.47;5033567;28;20504;-41
2024/02/16 09:13:59;;;;;;;6.85;4.50;;;;;;;12.73;40.91;100384.41;5032773;28;20424;-40
2024/02/16 09:16:24;;;;;;;6.90;4.40;;;;;;;13.16;41.18;100384.06;5033330;28;20021;-39
2024/02/16 09:18:49;;;;;;;6.53;4.32;;;;;;;13.10;40.61;100385.69;5032970;28;20050;-42
2024/02/16 09:21:15;;;;;;;12.82;4.10;;;;;;;13.24;40.48;100383.84;5032840;28;20497;-40
2024/02/16 09:23:40;;;;;;;7.57;4.55;;;;;;;13.38;40.42;100382.03;5032905;28;20024;-39
2024/02/16 09:26:07;;;;;;;7.13;4.38;;;;;;;14.09;39.95;100372.44;5032780;28;20024;-38
2024/02/16 09:28:32;;;;;;;9.50;4.30;;;;;;;13.92;39.07;100369.41;5032777;28;20505;-39
2024/02/16 09:30:58;;;;;;;7.07;4.60;;;;;;;14.28;38.73;100368.06;5032501;28;20084;-41
2024/02/16 09:33:27;;;;;;;6.45;4.32;;;;;;;14.36;38.57;100375.84;5032737;28;20373;-39
2024/02/16 09:35:53;;;;;;;6.57;4.55;;;;;;;14.69;38.36;100372.19;5031169;28;20029;-37
2024/02/16 09:38:18;;;;;;;7.13;4.55;;;;;;;15.13;37.53;100370.44;5032649;28;20485;-39
2024/02/16 09:40:44;;;;;;;7.15;4.13;;;;;;;15.07;37.63;100370.50;5032650;28;20540;-37
2024/02/16 09:43:10;;;;;;;8.88;4.28;;;;;;;15.36;36.29;100366.34;5032359;28;20049;-40
2024/02/16 09:45:35;;;;;;;6.57;3.90;;;;;;;15.37;36.62;100368.81;5032347;28;20513;-40
2024/02/16 09:48:02;;;;;;;5.68;3.92;;;;;;;15.51;36.04;100369.50;5032665;28;20032;-41
2024/02/16 09:50:28;;;;;;;7.55;4.63;;;;;;;15.91;35.96;100366.44;5032474;28;20053;-39
2024/02/16 09:52:56;;;;;;;6.10;4.32;;;;;;;15.85;35.73;100361.16;5032216;28;20097;-37
2024/02/16 09:55:22;;;;;;;4.38;3.25;;;;;;;15.57;35.66;100363.28;5032193;28;20512;-40
2024/02/16 09:57:58;;;;;;;6.03;3.90;;;;;;;15.75;36.48;100351.78;5032053;28;20494;-40
2024/02/16 10:00:24;;;;;;;6.68;4.10;;;;;;;15.70;35.46;100356.13;5032290;28;20108;-39
2024/02/16 10:02:49;;;;;;;6.47;3.65;;;;;;;15.88;35.38;100348.13;5032438;28;20116;-39
2024/02/16 10:05:17;;;;;;;6.32;4.00;;;;;;;15.74;35.62;100349.31;5031856;28;20108;-40
2024/02/16 10:07:43;;;;;;;8.07;3.78;;;;;;;15.75;34.92;100340.22;5032090;28;20021;-39
2024/02/16 10:10:22;;;;;;;7.20;3.70;;;;;;;15.74;34.67;100336.69;5032130;28;20477;-39
2024/02/16 10:12:48;;;;;;;5.57;3.70;;;;;;;16.06;34.82;100331.19;5031873;28;20017;-41
2024/02/16 10:15:20;;;;;;;6.95;3.30;;;;;;;16.38;33.93;100317.56;5031854;28;20021;-43
2024/02/16 10:17:56;;;;;;;3.80;3.10;;;;;;;16.68;32.59;100319.38;5031432;28;20042;-40
2024/02/16 10:20:22;;;;;;;5.07;3.22;;;;;;;16.75;32.57;100318.28;5030948;28;20034;-43
2024/02/16 10:22:47;;;;;;;5.30;3.00;;;;;;;17.08;32.30;100322.31;5031849;28;20021;-39
2024/02/16 10:25:13;;;;;;;4.43;3.20;;;;;;;16.76;32.63;100311.84;5031856;28;20102;-41
2024/02/16 10:27:39;;;;;;;4.75;2.90;;;;;;;16.33;32.74;100310.16;5031323;28;20026;-41
2024/02/16 10:30:09;;;;;;;4.00;3.08;;;;;;;16.55;32.35;100312.38;5031646;28;20025;-39
2024/02/16 10:32:38;;;;;;;9.07;3.25;;;;;;;16.51;32.98;100312.00;5031928;28;20033;-39
2024/02/16 10:35:06;;;;;;;4.65;3.60;;;;;;;16.33;33.55;100302.13;5031683;28;20044;-41
2024/02/16 10:37:32;;;;;;;5.80;3.33;;;;;;;16.61;33.12;100314.94;5031531;28;20072;-41
2024/02/16 10:39:59;;;;;;;6.25;3.30;;;;;;;16.94;32.03;100310.13;5031445;28;20438;-41
2024/02/16 10:42:27;;;;;;;3.88;2.92;;;;;;;16.70;33.08;100307.38;5031886;28;20375;-40
2024/02/16 10:44:53;;;;;;;3.80;2.80;;;;;;;16.48;32.99;100300.91;5031405;28;20489;-38
2024/02/16 10:47:19;;;;;;;4.28;3.22;;;;;;;16.16;33.34;100303.78;5031594;28;20068;-40
2024/02/16 10:49:44;;;;;;;4.65;3.30;;;;;;;15.67;34.33;100300.22;5031746;28;20017;-39
2024/02/16 10:52:12;;;;;;;3.85;2.85;;;;;;;16.41;33.36;100291.06;5031279;28;20025;-36
2024/02/16 10:54:38;;;;;;;5.05;3.08;;;;;;;16.11;33.89;100296.44;5031504;28;20473;-43
2024/02/16 10:57:08;;;;;;;5.90;3.78;;;;;;;15.81;33.69;100299.06;5031310;28;20021;-38
2024/02/16 10:59:43;;;;;;;;;;;;;;;15.94;34.50;100285.50;5031659;28;20034;-40
2024/02/16 11:02:10;;;;;;;3.92;2.58;;;;;;;16.02;33.24;100293.22;5031149;28;20412;-43
2024/02/16 11:04:39;;;;;;;4.35;2.58;;;;;;;15.75;34.01;100287.38;5031425;28;20127;-42
2024/02/16 11:07:12;;;;;;;5.00;2.72;;;;;;;15.73;34.13;100280.56;5031269;28;20500;-40
2024/02/16 11:09:39;;;;;;;4.38;2.95;;;;;;;16.19;33.23;100281.88;5034397;28;20029;-40
2024/02/16 11:12:08;;;;;;;4.78;2.70;;;;;;;16.17;33.53;100284.78;5035514;28;20167;-42
2024/02/16 11:14:37;;;;;;;4.78;2.70;;;;;;;16.36;33.31;100274.81;5035395;28;20029;-40
2024/02/16 11:17:20;;;;;;;3.50;2.67;;;;;;;16.01;33.53;100280.03;5035323;28;20025;-39
2024/02/16 11:19:47;;;;;;;5.75;2.78;;;;;;;16.12;33.03;100267.72;5035295;28;20052;-38
2024/02/16 11:22:17;;;;;;;5.65;3.13;;;;;;;16.27;33.16;100262.75;5034938;28;20030;-37
2024/02/16 11:24:48;;;;;;;4.60;3.08;;;;;;;16.52;33.00;100264.47;5035023;28;20440;-40